Tampa, FL

12:01 PM EDT on August 30, 2014 (GMT -0400)
University Village | Change Station
CLOSE
Current Station
Personal Weather Station
Location: Tampa, FL
Elevation: 72 ft
Nearby Weather Stations

Elev 72 ft 28.06 °N, 82.43 °W | Updated 2 seconds ago

Partly Cloudy
Partly Cloudy
87.0 °F
Feels Like 97 °F
N
8.0
Wind Variable Wind from East
Gusts 11.0 mph

Today
High -- | Low -- °F
--% Chance of Precip.
Yesterday
High -- | Low -- °F
Precip. -- in
7:07 AM 7:52 PM
Waxing Crescent, 23% visible
Pressure 30.13 in
Visibility 10.0 miles
Clouds Scattered Clouds 2900 ft
Heat Index 97 °F
Dew Point 75 °F
Humidity 68%
Rainfall 0.00 in
Snow Depth Not available.
UV 10 out of 12
Pollen 4.30 out of 12
Air Quality Not available.
Flu Activity Not available.
METAR KVDF 301555Z AUTO 15003KT 10SM SCT029 33/24 A3013 RMK AO2

More Conditions Fewer Conditions

Pressure 30.13 in
Visibility 10.0 miles
Clouds Scattered Clouds 2900 ft
Heat Index 97 °F
Dew Point 75 °F
Humidity 68%
Rainfall 0.00 in
Snow Depth Not available.
UV 10 out of 12
Pollen 4.30 out of 12
Air Quality Not available.
Flu Activity Not available.
METAR KVDF 301555Z AUTO 15003KT 10SM SCT029 33/24 A3013 RMK AO2

More Conditions Fewer Conditions

10-Day Weather Forecast

Almanac

Astronomy

Aug. 30, 2014 Rise Set
Actual Time 7:07 AM EDT 7:52 PM EDT
Civil Twilight 6:43 AM EDT 8:16 PM EDT
Nautical Twilight 6:15 AM EDT 8:44 PM EDT
Astronomical Twilight 5:46 AM EDT 9:13 PM EDT
Moon 11:26 AM EDT 10:54 PM EDT
Length of Visible Light 13h 33m
Length of Day
12h 45m
Tomorrow will be 1m 36s shorter.
Waxing Crescent, 23% of the Moon is Illuminated
Today
Waxing Crescent
Sep 2
First Quarter
Sep 8
Full
Sep 15
Last Quarter
Sep 24
New

Today's Extremes

State Highs State Lows

Community

WunderPhotos

Upload Photos

1,748,555 photos uploaded!

WunderBlogs® & News

Nearby

Snow Depth

Station Depth Elevation
No new snow has been reported.

Earthquake Activity

City Distance Mag. Time & Date
No recent earthquake activity has been reported nearby.
Minimum magnitude displayed is 2.5.

Coastal Water Temperatures

Place Temperature
St Petersburg, FL 88.0 °F
Old Port Tampa, FL 87.1 °F
McKay Bay Entrance, FL 89.1 °F

Nearby Weather Stations